createdAt,value
2022-11-11T00:01:32.155Z,20.50
2022-11-11T00:04:20.946Z,20.92
2022-11-11T00:07:08.209Z,20.20
2022-11-11T00:09:55.188Z,25.38
2022-11-11T00:12:42.575Z,16.48
2022-11-11T00:15:30.003Z,14.40
2022-11-11T00:18:34.355Z,17.05
2022-11-11T00:21:43.321Z,20.58
2022-11-11T00:24:49.771Z,18.42
2022-11-11T00:27:37.712Z,19.70
2022-11-11T00:30:24.785Z,18.27
2022-11-11T00:33:11.972Z,16.55
2022-11-11T00:35:59.224Z,15.43
2022-11-11T00:38:48.256Z,16.77
2022-11-11T00:41:35.708Z,17.52
2022-11-11T00:44:22.702Z,15.65
2022-11-11T00:47:27.606Z,25.48
2022-11-11T00:50:35.388Z,15.63
2022-11-11T00:53:27.047Z,19.08
2022-11-11T00:56:16.188Z,22.38
2022-11-11T00:59:03.437Z,19.58
2022-11-11T01:01:50.629Z,19.85
2022-11-11T01:04:37.732Z,21.00
2022-11-11T01:07:25.415Z,12.82
2022-11-11T01:10:12.912Z,23.30
2022-11-11T01:13:13.215Z,18.63
2022-11-11T01:16:03.152Z,21.43
2022-11-11T01:18:52.143Z,19.77
2022-11-11T01:21:39.470Z,15.15
2022-11-11T01:24:26.963Z,17.42
2022-11-11T01:27:13.864Z,16.88
2022-11-11T01:30:02.629Z,15.63
2022-11-11T01:32:49.618Z,20.83
2022-11-11T01:35:40.496Z,16.15
2022-11-11T01:38:27.976Z,13.07
2022-11-11T01:41:36.782Z,14.25
2022-11-11T01:44:46.700Z,16.63
2022-11-11T01:48:16.764Z,22.42
2022-11-11T01:50:59.242Z,23.77
2022-11-11T01:53:50.264Z,21.98
2022-11-11T01:56:38.733Z,24.55
2022-11-11T01:59:26.301Z,17.48
2022-11-11T02:02:20.779Z,21.15
2022-11-11T02:05:29.799Z,15.13
2022-11-11T02:08:32.932Z,21.02
2022-11-11T02:11:37.393Z,16.83
2022-11-11T02:14:43.295Z,17.23
2022-11-11T02:17:33.378Z,19.23
2022-11-11T02:20:24.413Z,19.95
2022-11-11T02:23:17.580Z,25.38
2022-11-11T02:26:08.388Z,14.13
2022-11-11T02:28:57.141Z,12.85
2022-11-11T02:31:44.395Z,21.05
2022-11-11T02:34:32.831Z,12.85
2022-11-11T02:37:23.404Z,18.10
2022-11-11T02:40:13.114Z,18.08
2022-11-11T02:43:01.624Z,17.20
2022-11-11T02:45:48.796Z,18.60
2022-11-11T02:48:36.801Z,20.75
2022-11-11T02:51:24.158Z,20.85
2022-11-11T02:54:11.271Z,15.75
2022-11-11T02:57:10.613Z,14.68
2022-11-11T03:00:01.378Z,15.95
2022-11-11T03:02:48.900Z,21.00
2022-11-11T03:05:36.481Z,18.45
2022-11-11T03:08:23.818Z,16.38
2022-11-11T03:11:10.978Z,18.50
2022-11-11T03:13:59.277Z,20.45
2022-11-11T03:17:05.767Z,16.02
2022-11-11T03:19:52.895Z,17.50
2022-11-11T03:22:55.404Z,19.60
2022-11-11T03:25:44.186Z,22.48
2022-11-11T03:28:31.319Z,13.23
2022-11-11T03:31:18.784Z,25.17
2022-11-11T03:34:22.159Z,17.85
2022-11-11T03:37:30.125Z,20.17
2022-11-11T03:40:17.635Z,18.25
2022-11-11T03:43:05.526Z,22.42
2022-11-11T03:45:53.375Z,26.30
2022-11-11T03:48:40.592Z,21.10
2022-11-11T03:51:29.236Z,21.35
2022-11-11T03:54:16.303Z,20.15
2022-11-11T03:57:21.102Z,25.80
2022-11-11T04:00:14.711Z,20.17
2022-11-11T04:03:25.134Z,24.30
2022-11-11T04:06:30.521Z,24.40
2022-11-11T04:09:37.081Z,19.75
2022-11-11T04:12:26.262Z,19.60
2022-11-11T04:15:30.977Z,21.35
2022-11-11T04:18:18.592Z,22.80
2022-11-11T04:21:23.281Z,26.83
2022-11-11T04:24:38.066Z,25.52
2022-11-11T04:27:27.306Z,25.02
2022-11-11T04:30:13.659Z,23.83
2022-11-11T04:33:01.278Z,24.90
2022-11-11T04:35:51.161Z,18.45
2022-11-11T04:38:55.575Z,26.48
2022-11-11T04:42:06.632Z,22.15
2022-11-11T04:45:09.090Z,20.35
2022-11-11T04:47:59.111Z,18.92
2022-11-11T04:50:46.853Z,20.58
2022-11-11T04:53:34.492Z,20.83
2022-11-11T04:56:39.113Z,27.02
2022-11-11T04:59:29.492Z,30.92
2022-11-11T05:02:35.789Z,23.30
2022-11-11T05:05:23.498Z,18.30
2022-11-11T05:08:27.934Z,31.17
2022-11-11T05:11:15.953Z,24.05
2022-11-11T05:14:21.975Z,23.98
2022-11-11T05:17:28.740Z,27.05
2022-11-11T05:20:38.976Z,27.67
2022-11-11T05:23:52.491Z,23.17
2022-11-11T05:26:38.929Z,25.65
2022-11-11T05:29:26.122Z,26.70
2022-11-11T05:32:18.665Z,20.17
2022-11-11T05:35:06.574Z,26.70
2022-11-11T05:38:09.365Z,27.70
2022-11-11T05:40:57.290Z,21.88
2022-11-11T05:43:45.055Z,25.05
2022-11-11T05:46:32.187Z,23.73
2022-11-11T05:49:19.917Z,25.08
2022-11-11T05:52:08.757Z,23.52
2022-11-11T05:54:57.186Z,21.55
2022-11-11T05:57:44.453Z,21.10
2022-11-11T06:00:31.603Z,24.95
2022-11-11T06:03:18.755Z,27.70
2022-11-11T06:06:06.689Z,26.38
2022-11-11T06:08:54.284Z,31.02
2022-11-11T06:11:42.827Z,23.90
2022-11-11T06:14:30.058Z,30.13
2022-11-11T06:17:17.387Z,26.20
2022-11-11T06:20:05.168Z,24.98
2022-11-11T06:22:58.600Z,27.55
2022-11-11T06:26:02.898Z,21.73
2022-11-11T06:28:53.109Z,26.52
2022-11-11T06:31:40.300Z,17.13
2022-11-11T06:34:27.603Z,22.75
2022-11-11T06:37:14.843Z,26.83
2022-11-11T06:40:01.914Z,24.88
2022-11-11T06:42:48.973Z,27.90
2022-11-11T06:45:38.212Z,26.15
2022-11-11T06:48:27.176Z,30.25
2022-11-11T06:51:15.274Z,30.30
2022-11-11T06:54:02.434Z,18.42
2022-11-11T06:56:50.420Z,25.80
2022-11-11T06:59:37.494Z,20.20
2022-11-11T07:02:26.365Z,26.02
2022-11-11T07:05:13.771Z,17.55
2022-11-11T07:08:04.615Z,17.17
2022-11-11T07:10:52.091Z,34.30
2022-11-11T07:13:39.122Z,26.98
2022-11-11T07:16:26.576Z,24.08
2022-11-11T07:19:15.225Z,24.60
2022-11-11T07:22:02.669Z,25.58
2022-11-11T07:24:49.681Z,22.13
2022-11-11T07:27:39.187Z,28.10
2022-11-11T07:30:27.289Z,21.33
2022-11-11T07:33:14.411Z,28.83
2022-11-11T07:36:03.650Z,28.70
2022-11-11T07:38:51.222Z,32.70
2022-11-11T07:41:38.641Z,24.52
2022-11-11T07:44:25.684Z,22.55
2022-11-11T07:47:13.014Z,22.58
2022-11-11T07:50:04.521Z,27.63
2022-11-11T07:52:56.483Z,29.65
2022-11-11T07:55:43.976Z,20.45
2022-11-11T07:58:31.522Z,26.75
2022-11-11T08:01:18.766Z,24.15
2022-11-11T08:04:06.261Z,25.75
2022-11-11T08:06:54.137Z,21.33
2022-11-11T08:09:42.925Z,24.92
2022-11-11T08:12:59.328Z,20.20
2022-11-11T08:15:46.763Z,17.13
2022-11-11T08:18:34.684Z,22.13
2022-11-11T08:21:22.119Z,23.50
2022-11-11T08:27:19.328Z,15.05
2022-11-11T08:30:09.260Z,17.05
2022-11-11T08:33:26.537Z,20.38
2022-11-11T08:36:08.267Z,15.37
2022-11-11T08:38:55.728Z,13.23
2022-11-11T08:41:45.987Z,27.52
2022-11-11T08:44:34.504Z,12.85
2022-11-11T08:47:23.022Z,22.85
2022-11-11T08:50:10.743Z,22.30
2022-11-11T08:52:58.467Z,15.13
2022-11-11T08:55:45.748Z,10.45
2022-11-11T08:58:33.642Z,15.95
2022-11-11T09:01:22.292Z,17.45
2022-11-11T09:04:43.204Z,11.38
2022-11-11T09:07:20.434Z,12.15
2022-11-11T09:10:08.930Z,9.52
2022-11-11T09:12:58.409Z,13.18
2022-11-11T09:15:45.625Z,9.63
2022-11-11T09:18:34.415Z,9.60
2022-11-11T09:21:22.063Z,8.57
2022-11-11T09:24:09.207Z,7.80
2022-11-11T09:26:57.350Z,6.82
2022-11-11T09:29:44.407Z,8.25
2022-11-11T09:32:31.694Z,6.70
2022-11-11T09:35:20.508Z,6.80
2022-11-11T09:38:08.340Z,6.47
2022-11-11T09:41:11.482Z,8.98
2022-11-11T09:44:01.932Z,6.68
2022-11-11T09:46:57.128Z,6.17
2022-11-11T09:49:59.908Z,7.53
2022-11-11T09:52:55.848Z,7.20
2022-11-11T09:55:45.387Z,5.95
2022-11-11T09:58:36.672Z,8.13
2022-11-11T10:04:24.967Z,6.90
2022-11-11T10:07:19.789Z,8.40
2022-11-11T10:10:18.141Z,5.70
2022-11-11T10:13:05.775Z,8.00
2022-11-11T10:16:02.171Z,6.07
2022-11-11T10:19:04.247Z,5.13
2022-11-11T10:25:18.864Z,7.40
2022-11-11T10:28:08.278Z,5.30
2022-11-11T10:30:56.388Z,5.43
2022-11-11T10:33:50.680Z,5.63
2022-11-11T10:36:44.281Z,8.50
2022-11-11T10:39:46.914Z,5.70
2022-11-11T10:42:39.542Z,4.93
2022-11-11T10:45:41.645Z,5.47
2022-11-11T10:48:43.299Z,6.35
2022-11-11T10:51:38.306Z,7.47
2022-11-11T10:54:28.905Z,5.53
2022-11-11T10:57:21.161Z,5.90
2022-11-11T11:00:13.152Z,7.43
2022-11-11T11:03:09.739Z,5.10
2022-11-11T11:06:03.281Z,9.25
2022-11-11T11:08:55.973Z,6.40
2022-11-11T11:11:50.243Z,10.05
2022-11-11T11:14:42.805Z,6.53
2022-11-11T11:17:39.066Z,6.70
2022-11-11T11:20:26.501Z,6.90
2022-11-11T11:23:13.636Z,9.40
2022-11-11T11:26:03.055Z,6.75
2022-11-11T11:28:58.325Z,6.53
2022-11-11T11:31:47.871Z,7.13
2022-11-11T11:34:51.013Z,6.20
2022-11-11T11:37:51.692Z,6.50
2022-11-11T11:40:53.052Z,5.40
2022-11-11T11:43:43.009Z,5.43
2022-11-11T11:46:34.924Z,5.57
2022-11-11T11:49:34.784Z,5.63
2022-11-11T11:52:37.742Z,5.45
2022-11-11T11:55:34.405Z,9.40
2022-11-11T11:58:37.626Z,7.40
2022-11-11T12:01:36.867Z,9.07
2022-11-11T12:04:45.754Z,9.52
2022-11-11T12:07:52.216Z,15.50
2022-11-11T12:10:46.750Z,11.57
2022-11-11T12:13:41.105Z,10.57
2022-11-11T12:16:42.529Z,80.25
2022-11-11T12:19:44.772Z,18.27
2022-11-11T12:22:46.475Z,51.97
2022-11-11T12:28:42.644Z,15.80
2022-11-11T12:31:41.833Z,18.77
2022-11-11T12:35:02.435Z,16.15
2022-11-11T12:38:04.322Z,16.48
2022-11-11T12:41:06.602Z,18.40
2022-11-11T12:44:02.146Z,25.90
2022-11-11T12:47:05.481Z,19.65
2022-11-11T12:50:00.805Z,25.92
2022-11-11T12:53:02.167Z,26.10
2022-11-11T12:55:56.429Z,28.35
2022-11-11T12:58:49.873Z,35.88
2022-11-11T13:01:53.705Z,26.15
2022-11-11T13:05:07.204Z,33.70
2022-11-11T13:08:31.065Z,36.20
2022-11-11T13:11:27.607Z,35.13
2022-11-11T13:14:46.870Z,38.25
2022-11-11T13:17:34.666Z,38.58
2022-11-11T13:20:37.168Z,33.72
2022-11-11T13:23:26.336Z,40.72
2022-11-11T13:26:26.856Z,48.17
2022-11-11T13:29:48.232Z,41.13
2022-11-11T13:32:41.885Z,39.70
2022-11-11T13:35:33.668Z,50.38
2022-11-11T13:38:34.431Z,48.80
2022-11-11T13:41:25.769Z,58.65
2022-11-11T13:44:24.687Z,45.65
2022-11-11T13:47:19.484Z,46.35
2022-11-11T13:50:09.631Z,50.47
2022-11-11T13:53:01.973Z,50.22
2022-11-11T13:55:55.065Z,52.72
2022-11-11T13:58:49.088Z,60.58
2022-11-11T14:01:42.911Z,64.15
2022-11-11T14:04:32.215Z,49.38
2022-11-11T14:07:50.328Z,47.95
2022-11-11T14:10:55.756Z,57.03
2022-11-11T14:13:44.237Z,56.28
2022-11-11T14:17:03.081Z,45.80
2022-11-11T14:19:49.974Z,43.10
2022-11-11T14:22:37.009Z,45.38
2022-11-11T14:25:27.715Z,51.05
2022-11-11T14:28:24.346Z,45.53
2022-11-11T14:31:52.500Z,62.10
2022-11-11T14:34:53.256Z,49.53
2022-11-11T14:38:14.304Z,58.20
2022-11-11T14:41:35.229Z,37.25
2022-11-11T14:44:45.121Z,53.53
2022-11-11T14:47:37.181Z,56.33
2022-11-11T14:50:45.729Z,72.75
2022-11-11T14:53:39.830Z,53.72
2022-11-11T14:56:29.355Z,52.95
2022-11-11T14:59:22.296Z,58.83
2022-11-11T15:02:23.969Z,60.40
2022-11-11T15:05:17.812Z,64.32
2022-11-11T15:08:24.371Z,55.08
2022-11-11T15:11:28.509Z,60.25
2022-11-11T15:14:36.216Z,60.95
2022-11-11T15:17:36.369Z,58.38
2022-11-11T15:20:44.465Z,63.67
2022-11-11T15:23:38.701Z,58.25
2022-11-11T15:26:35.719Z,52.25
2022-11-11T15:29:41.257Z,53.58
2022-11-11T15:32:38.735Z,52.00
2022-11-11T15:35:35.457Z,61.53
2022-11-11T15:38:22.976Z,53.63
2022-11-11T15:41:24.380Z,47.97
2022-11-11T15:44:22.220Z,42.85
2022-11-11T15:47:15.618Z,48.17
2022-11-11T15:50:04.093Z,46.13
2022-11-11T15:52:56.436Z,52.90
2022-11-11T15:55:53.107Z,41.92
2022-11-11T15:58:40.007Z,45.58
2022-11-11T16:01:30.048Z,42.92
2022-11-11T16:04:53.309Z,41.58
2022-11-11T16:07:33.355Z,47.60
2022-11-11T16:10:27.016Z,43.22
2022-11-11T16:13:18.292Z,35.22
2022-11-11T16:16:09.953Z,37.40
2022-11-11T16:19:04.491Z,31.75
2022-11-11T16:21:56.868Z,39.10
2022-11-11T16:24:46.495Z,36.63
2022-11-11T16:27:35.065Z,36.30
2022-11-11T16:30:32.513Z,37.10
2022-11-11T16:33:35.537Z,36.70
2022-11-11T16:36:22.512Z,35.75
2022-11-11T16:39:16.833Z,42.28
2022-11-11T16:42:07.713Z,45.30
2022-11-11T16:45:00.340Z,33.60
2022-11-11T16:47:49.323Z,35.15
2022-11-11T16:50:55.435Z,41.80
2022-11-11T16:53:45.776Z,29.23
2022-11-11T16:56:33.894Z,23.17
2022-11-11T16:59:26.654Z,31.30
2022-11-11T17:02:18.435Z,24.52
2022-11-11T17:05:06.498Z,34.55
2022-11-11T17:07:53.755Z,28.42
2022-11-11T17:10:41.922Z,24.25
2022-11-11T17:13:29.223Z,20.52
2022-11-11T17:16:17.668Z,19.23
2022-11-11T17:19:05.534Z,28.35
2022-11-11T17:21:52.713Z,21.52
2022-11-11T17:24:40.642Z,22.80
2022-11-11T17:27:31.901Z,20.77
2022-11-11T17:30:18.951Z,22.50
2022-11-11T17:33:07.338Z,24.55
2022-11-11T17:35:55.559Z,17.33
2022-11-11T17:38:42.497Z,17.20
2022-11-11T17:41:29.852Z,17.88
2022-11-11T17:44:16.939Z,16.80
2022-11-11T17:47:04.341Z,10.32
2022-11-11T17:49:57.350Z,17.77
2022-11-11T17:52:44.722Z,15.00
2022-11-11T17:55:33.203Z,22.55
2022-11-11T17:58:20.270Z,12.90
2022-11-11T18:01:08.821Z,14.20
2022-11-11T18:03:59.434Z,13.70
2022-11-11T18:06:48.606Z,14.57
2022-11-11T18:09:35.975Z,10.25
2022-11-11T18:12:23.146Z,13.65
2022-11-11T18:15:13.313Z,17.45
2022-11-11T18:18:00.071Z,16.95
2022-11-11T18:20:46.987Z,19.27
2022-11-11T18:23:37.279Z,14.90
2022-11-11T18:26:24.397Z,19.63
2022-11-11T18:29:11.981Z,24.58
2022-11-11T18:31:59.594Z,23.20
2022-11-11T18:34:46.552Z,23.50
2022-11-11T18:37:33.893Z,18.67
2022-11-11T18:40:22.533Z,20.50
2022-11-11T18:43:09.865Z,22.65
2022-11-11T18:45:56.916Z,21.10
2022-11-11T18:48:44.687Z,20.98
2022-11-11T18:51:34.878Z,19.10
2022-11-11T18:54:26.271Z,21.67
2022-11-11T18:57:17.662Z,25.13
2022-11-11T19:00:05.503Z,20.70
2022-11-11T19:02:52.680Z,14.27
2022-11-11T19:05:39.640Z,16.35
2022-11-11T19:08:26.843Z,20.27
2022-11-11T19:11:14.246Z,18.38
2022-11-11T19:14:03.400Z,18.27
2022-11-11T19:16:50.402Z,28.35
2022-11-11T19:19:37.660Z,24.10
2022-11-11T19:22:24.903Z,24.25
2022-11-11T19:25:12.182Z,22.05
2022-11-11T19:27:59.582Z,18.45
2022-11-11T19:30:47.925Z,19.10
2022-11-11T19:33:36.100Z,21.85
2022-11-11T19:36:27.159Z,24.55
2022-11-11T19:39:14.280Z,19.48
2022-11-11T19:42:01.220Z,26.27
2022-11-11T19:44:48.621Z,22.35
2022-11-11T19:47:37.353Z,23.10
2022-11-11T19:50:24.362Z,18.95
2022-11-11T19:53:13.390Z,19.52
2022-11-11T19:56:00.750Z,25.08
2022-11-11T19:58:49.080Z,22.92
2022-11-11T20:01:37.226Z,16.95
2022-11-11T20:04:25.560Z,23.92
2022-11-11T20:07:12.586Z,19.95
2022-11-11T20:09:59.948Z,15.50
2022-11-11T20:12:48.321Z,20.55
2022-11-11T20:15:36.266Z,20.23
2022-11-11T20:18:23.363Z,16.15
2022-11-11T20:21:13.288Z,19.63
2022-11-11T20:24:01.639Z,21.63
2022-11-11T20:26:52.294Z,18.92
2022-11-11T20:29:40.216Z,19.23
2022-11-11T20:32:30.498Z,16.42
2022-11-11T20:35:17.918Z,11.63
2022-11-11T20:38:06.415Z,12.82
2022-11-11T20:41:00.282Z,11.85
2022-11-11T20:43:48.301Z,14.90
2022-11-11T20:46:35.705Z,14.30
2022-11-11T20:49:22.986Z,13.27
2022-11-11T20:52:12.001Z,10.75
2022-11-11T20:55:00.734Z,12.18
2022-11-11T20:57:47.845Z,12.63
2022-11-11T21:00:35.427Z,6.35
2022-11-11T21:03:23.172Z,9.15
2022-11-11T21:06:11.917Z,13.10
2022-11-11T21:08:59.837Z,8.05
2022-11-11T21:11:48.747Z,10.55
2022-11-11T21:14:35.948Z,10.48
2022-11-11T21:17:23.282Z,10.68
2022-11-11T21:20:10.976Z,9.20
2022-11-11T21:22:58.705Z,11.38
2022-11-11T21:25:45.962Z,11.20
2022-11-11T21:28:36.098Z,9.10
2022-11-11T21:31:25.102Z,7.88
2022-11-11T21:34:14.164Z,10.25
2022-11-11T21:37:01.403Z,10.23
2022-11-11T21:39:48.765Z,10.00
2022-11-11T21:42:35.827Z,9.43
2022-11-11T21:45:24.684Z,8.70
2022-11-11T21:48:12.041Z,16.15
2022-11-11T21:51:04.141Z,10.73
2022-11-11T21:53:55.615Z,13.52
2022-11-11T21:56:47.583Z,14.25
2022-11-11T21:59:34.840Z,10.60
2022-11-11T22:02:24.576Z,8.98
2022-11-11T22:05:12.047Z,6.20
2022-11-11T22:07:59.384Z,8.05
2022-11-11T22:10:46.847Z,11.07
2022-11-11T22:13:35.413Z,15.43
2022-11-11T22:16:25.164Z,7.68
2022-11-11T22:19:16.147Z,8.68
2022-11-11T22:22:03.409Z,7.50
2022-11-11T22:24:50.767Z,7.82
2022-11-11T22:27:38.132Z,8.93
2022-11-11T22:30:25.530Z,6.35
2022-11-11T22:33:13.054Z,8.18
2022-11-11T22:36:04.172Z,11.10
2022-11-11T22:38:51.889Z,10.50
2022-11-11T22:41:40.802Z,8.35
2022-11-11T22:44:28.140Z,12.85
2022-11-11T22:47:15.599Z,8.13
2022-11-11T22:50:02.847Z,9.25
2022-11-11T22:52:52.641Z,8.23
2022-11-11T22:55:43.014Z,7.75
2022-11-11T22:58:34.060Z,12.30
2022-11-11T23:01:29.128Z,8.45
2022-11-11T23:04:17.687Z,6.78
2022-11-11T23:07:05.070Z,10.68
2022-11-11T23:09:54.032Z,8.20
2022-11-11T23:12:41.340Z,3.92
2022-11-11T23:15:28.938Z,9.13
2022-11-11T23:18:16.282Z,4.00
2022-11-11T23:21:06.130Z,8.68
2022-11-11T23:23:53.450Z,6.13
2022-11-11T23:26:43.709Z,6.20
2022-11-11T23:29:31.716Z,7.90
2022-11-11T23:32:18.987Z,5.95
2022-11-11T23:35:07.062Z,4.72
2022-11-11T23:37:54.202Z,7.30
2022-11-11T23:40:41.603Z,4.45
2022-11-11T23:43:30.664Z,6.53
2022-11-11T23:46:17.468Z,6.18
2022-11-11T23:49:04.653Z,5.93
2022-11-11T23:51:51.959Z,3.63
2022-11-11T23:54:38.901Z,5.80
2022-11-11T23:57:26.102Z,5.60
